»·PEaware :: DCM2499 KVGT-KSMX

DCM2499 :: KVGT-KSMX

FLIGHT INFORMATION

Flight Status: Arrived
Operator: Unknown
More flights by this operator :: More flights under this callsign
Pilot: Alec D. (17934)
Aircraft: GATES LEARJET LEARJET 35/36
(LJ35)
More flights by this aircraft type
Origin: KVGT North Las Vegas
United States
Destination: KSMX Santa Maria Pub/Capt Hancock
United States
More flights between these airports :: More routes between these airports
Route: +RTTRN3 LAS V538 CRESO V21 HEC PMD V12 GVO
File this flight plan on PilotEdge
Remarks:
Altitude:
(Current/Filed)
30,000ft
Speed:
(Current/Filed)
435kts
Departed: 03-Aug-18 07:25 PM
Arrived: 03-Aug-18 08:43 PM
Distance/Time
Traveled:
269nm/1:18
Distance/Time
To Go:
Arrived

Flight Plot

Page will automatically refresh every two minutes.

Flight plan parsing failed; only flown route is shown


Map Options




Map Legend


Flown Route
Filed Route
Departure Airport
Arrival Airport
Navaid (VOR, NDB)
Fix

Horizontal Profiles

Position Reports

Time Latitude Longitude Heading Altitude Ground
Speed
03-Aug-18 19:02 36.209078 -115.198693 226 2207ft 0kts
03-Aug-18 19:03 36.209078 -115.198693 226 2207ft 0kts
03-Aug-18 19:04 36.209078 -115.198693 226 2207ft 0kts
03-Aug-18 19:05 36.209078 -115.198693 226 2207ft 0kts
03-Aug-18 19:06 36.209078 -115.198693 226 2207ft 0kts
03-Aug-18 19:07 36.209078 -115.198693 226 2207ft 0kts
03-Aug-18 19:08 36.209078 -115.198693 226 2207ft 0kts
03-Aug-18 19:09 36.209078 -115.198693 226 2207ft 0kts
03-Aug-18 19:10 36.209078 -115.198693 226 2207ft 0kts
03-Aug-18 19:11 36.209078 -115.198693 226 2207ft 0kts
03-Aug-18 19:12 36.209078 -115.198693 226 2207ft 0kts
03-Aug-18 19:13 36.209078 -115.198693 226 2207ft 0kts
03-Aug-18 19:14 36.209078 -115.198693 226 2207ft 0kts
03-Aug-18 19:15 36.209078 -115.198693 226 2207ft 0kts
03-Aug-18 19:16 36.209078 -115.198693 226 2207ft 0kts
03-Aug-18 19:17 36.209078 -115.198693 226 2207ft 0kts
03-Aug-18 19:18 36.209067 -115.198706 220 2208ft 1kts
03-Aug-18 19:19 36.209044 -115.198442 26 2208ft 3kts
03-Aug-18 19:20 36.210593 -115.198926 314 2208ft 10kts
03-Aug-18 19:21 36.212818 -115.202203 268 2208ft 6kts
03-Aug-18 19:22 36.212892 -115.203161 323 2207ft 0kts
03-Aug-18 19:23 36.212894 -115.203163 323 2207ft 0kts
03-Aug-18 19:24 36.213491 -115.203226 357 2207ft 0kts
03-Aug-18 19:25 36.214502 -115.202515 99 2208ft 7kts
03-Aug-18 19:26 36.207198 -115.193194 134 2223ft 126kts
03-Aug-18 19:27 36.170602 -115.160055 177 4868ft 198kts
03-Aug-18 19:28 36.141483 -115.206515 283 5024ft 198kts
03-Aug-18 19:29 36.188812 -115.228251 26 7089ft 231kts
03-Aug-18 19:30 36.207823 -115.154550 110 9237ft 254kts
03-Aug-18 19:31 36.146509 -115.120358 200 12485ft 275kts
03-Aug-18 19:32 36.076056 -115.161170 208 15563ft 302kts
03-Aug-18 19:33 35.988831 -115.170172 174 18457ft 348kts
03-Aug-18 19:34 35.889693 -115.161024 184 21251ft 365kts
03-Aug-18 19:35 35.787540 -115.171754 201 23820ft 370kts
03-Aug-18 19:36 35.709959 -115.252688 230 26142ft 373kts
03-Aug-18 19:37 35.639090 -115.347749 231 28356ft 382kts
03-Aug-18 19:38 35.566591 -115.445163 232 29877ft 398kts
03-Aug-18 19:39 35.490951 -115.546624 232 29900ft 406kts
03-Aug-18 19:40 35.413986 -115.649526 231 29900ft 412kts
03-Aug-18 19:41 35.335886 -115.753587 231 29900ft 417kts
03-Aug-18 19:42 35.256710 -115.858788 231 29881ft 421kts
03-Aug-18 19:43 35.177110 -115.964220 231 29878ft 424kts
03-Aug-18 19:44 35.096865 -116.070154 230 29886ft 422kts
03-Aug-18 19:45 35.017298 -116.174881 230 29884ft 420kts
03-Aug-18 19:46 34.937978 -116.278968 230 29909ft 419kts
03-Aug-18 19:47 34.858472 -116.382981 230 29901ft 419kts
03-Aug-18 19:48 34.794668 -116.497526 256 29942ft 407kts
03-Aug-18 19:49 34.780544 -116.633313 264 29910ft 406kts
03-Aug-18 19:50 34.767006 -116.769844 264 29889ft 406kts
03-Aug-18 19:51 34.753398 -116.906009 264 29901ft 405kts
03-Aug-18 19:52 34.739684 -117.041776 264 29956ft 404kts
03-Aug-18 19:53 34.725829 -117.177405 264 29615ft 401kts
03-Aug-18 19:54 34.712143 -117.309858 263 27621ft 389kts
03-Aug-18 19:55 34.698627 -117.439354 263 25617ft 382kts
03-Aug-18 19:56 34.685210 -117.566571 262 24041ft 381kts
03-Aug-18 19:57 34.671151 -117.698486 262 22383ft 396kts
03-Aug-18 19:58 34.657522 -117.825020 262 20269ft 360kts
03-Aug-18 19:59 34.644805 -117.941956 262 18163ft 341kts
03-Aug-18 20:00 34.632572 -118.053430 262 16254ft 326kts
03-Aug-18 20:01 34.624544 -118.161903 266 14357ft 322kts
03-Aug-18 20:02 34.618027 -118.268120 265 13985ft 312kts
03-Aug-18 20:03 34.611152 -118.372682 265 14004ft 308kts
03-Aug-18 20:04 34.604236 -118.475656 265 14031ft 305kts
03-Aug-18 20:05 34.597290 -118.577646 265 14090ft 302kts
03-Aug-18 20:06 34.590271 -118.679393 265 14110ft 302kts
03-Aug-18 20:07 34.583206 -118.780618 265 14134ft 301kts
03-Aug-18 20:08 34.576040 -118.882037 265 14181ft 301kts
03-Aug-18 20:09 34.568822 -118.982919 265 13066ft 295kts
03-Aug-18 20:10 34.561803 -119.079905 265 11657ft 281kts
03-Aug-18 20:11 34.556051 -119.158603 265 10736ft 279kts
03-Aug-18 20:12 34.547921 -119.268736 265 9458ft 282kts
03-Aug-18 20:13 34.540845 -119.363481 265 9054ft 279kts
03-Aug-18 20:14 34.535020 -119.440704 265 9043ft 272kts
03-Aug-18 20:15 34.528132 -119.531185 266 9039ft 267kts
03-Aug-18 20:16 34.520132 -119.635235 266 9032ft 264kts
03-Aug-18 20:17 34.513235 -119.724017 266 9024ft 263kts
03-Aug-18 20:18 34.511111 -119.797380 277 9007ft 261kts
03-Aug-18 20:19 34.518381 -119.899763 276 9010ft 260kts
03-Aug-18 20:20 34.523348 -119.972677 276 8412ft 260kts
03-Aug-18 20:21 34.529197 -120.059486 276 7112ft 256kts
03-Aug-18 20:22 34.545808 -120.140044 306 6098ft 237kts
03-Aug-18 20:23 34.586181 -120.201072 310 5187ft 231kts
03-Aug-18 20:24 34.627433 -120.261278 310 4233ft 233kts
03-Aug-18 20:25 34.667366 -120.319429 310 4062ft 213kts
03-Aug-18 20:26 34.708007 -120.374547 316 4076ft 223kts
03-Aug-18 20:27 34.752228 -120.426875 316 4075ft 219kts
03-Aug-18 20:28 34.795670 -120.478212 316 4068ft 214kts
03-Aug-18 20:29 34.837021 -120.527411 316 4071ft 206kts
03-Aug-18 20:30 34.877837 -120.576107 316 4083ft 204kts
03-Aug-18 20:31 34.918431 -120.624815 316 4070ft 203kts
03-Aug-18 20:32 34.958038 -120.672422 316 4070ft 200kts
03-Aug-18 20:33 34.998207 -120.720695 316 4070ft 199kts
03-Aug-18 20:34 35.036250 -120.766690 316 4057ft 186kts
03-Aug-18 20:35 35.072167 -120.810426 316 4059ft 181kts
03-Aug-18 20:36 35.108099 -120.790332 87 4081ft 206kts
03-Aug-18 20:37 35.097360 -120.721847 99 4054ft 199kts
03-Aug-18 20:38 35.074081 -120.661920 129 4067ft 199kts
03-Aug-18 20:39 35.038094 -120.619033 134 4075ft 174kts
03-Aug-18 20:40 35.004849 -120.579890 133 4060ft 151kts
03-Aug-18 20:41 34.971085 -120.539441 133 3423ft 189kts
03-Aug-18 20:42 34.933849 -120.494749 135 977ft 184kts
03-Aug-18 20:43 34.902975 -120.458028 134 273ft 128kts
03-Aug-18 20:44 34.894279 -120.447594 133 264ft 16kts
03-Aug-18 20:45 34.892359 -120.446339 227 264ft 0kts
03-Aug-18 20:46 34.892131 -120.446656 229 264ft 8kts
03-Aug-18 20:47 34.891730 -120.450775 270 264ft 23kts
03-Aug-18 20:48 34.892809 -120.453651 358 264ft 7kts
03-Aug-18 20:49 34.892859 -120.454848 177 264ft 0kts
03-Aug-18 20:50 34.892859 -120.454848 177 264ft 0kts
03-Aug-18 20:51 34.892859 -120.454848 177 264ft 0kts
03-Aug-18 20:52 34.892859 -120.454848 177 264ft 0kts
03-Aug-18 20:53 34.892859 -120.454848 177 264ft 0kts
03-Aug-18 20:54 34.892859 -120.454848 177 264ft 0kts
03-Aug-18 20:55 34.892859 -120.454848 177 263ft 0kts
03-Aug-18 20:56 34.892859 -120.454848 177 263ft 0kts

Navigation Log

Ident Type
Flight plan parsing failed, navigation log unavailable